createdAt,value
2018-02-21T00:02:24.212Z,-1.93
2018-02-21T00:04:51.951Z,-1.96
2018-02-21T00:07:19.672Z,-1.98
2018-02-21T00:09:47.451Z,-1.99
2018-02-21T00:12:15.168Z,-2.00
2018-02-21T00:14:42.912Z,-2.00
2018-02-21T00:17:10.655Z,-2.00
2018-02-21T00:19:38.416Z,-1.99
2018-02-21T00:22:06.179Z,-1.97
2018-02-21T00:24:33.939Z,-1.96
2018-02-21T00:27:01.713Z,-1.93
2018-02-21T00:29:29.428Z,-1.91
2018-02-21T00:31:57.167Z,-1.86
2018-02-21T00:34:24.902Z,-1.83
2018-02-21T00:36:52.672Z,-1.78
2018-02-21T00:39:20.388Z,-1.74
2018-02-21T00:41:48.134Z,-1.69
2018-02-21T00:44:15.965Z,-1.64
2018-02-21T00:46:43.731Z,-1.59
2018-02-21T00:49:11.491Z,-1.56
2018-02-21T00:51:39.230Z,-1.53
2018-02-21T00:56:33.972Z,-1.47
2018-02-21T00:59:01.736Z,-1.44
2018-02-21T01:01:29.504Z,-1.41
2018-02-21T01:03:57.247Z,-1.38
2018-02-21T01:06:25.035Z,-1.34
2018-02-21T01:08:52.771Z,-1.32
2018-02-21T01:11:20.492Z,-1.29
2018-02-21T01:13:48.323Z,-1.25
2018-02-21T01:16:16.040Z,-1.23
2018-02-21T01:18:43.779Z,-1.21
2018-02-21T01:21:11.496Z,-1.19
2018-02-21T01:23:39.288Z,-1.17
2018-02-21T01:26:07.012Z,-1.15
2018-02-21T01:28:34.759Z,-1.13
2018-02-21T01:31:02.486Z,-1.13
2018-02-21T01:33:30.252Z,-1.12
2018-02-21T01:35:58.013Z,-1.12
2018-02-21T01:38:25.775Z,-1.12
2018-02-21T01:40:53.544Z,-1.14
2018-02-21T01:43:21.259Z,-1.15
2018-02-21T01:45:49.067Z,-1.15
2018-02-21T01:48:16.794Z,-1.17
2018-02-21T01:50:52.397Z,-1.18
2018-02-21T01:53:20.142Z,-1.21
2018-02-21T01:55:47.906Z,-1.23
2018-02-21T01:58:15.633Z,-1.26
2018-02-21T02:00:43.543Z,-1.28
2018-02-21T02:03:11.268Z,-1.29
2018-02-21T02:05:39.084Z,-1.29
2018-02-21T02:08:06.812Z,-1.32
2018-02-21T02:10:34.621Z,-1.34
2018-02-21T02:13:02.363Z,-1.36
2018-02-21T02:15:30.084Z,-1.41
2018-02-21T02:17:57.872Z,-1.44
2018-02-21T02:20:25.601Z,-1.49
2018-02-21T02:22:53.445Z,-1.54
2018-02-21T02:25:21.160Z,-1.58
2018-02-21T02:27:48.904Z,-1.65
2018-02-21T02:30:16.630Z,-1.69
2018-02-21T02:32:44.373Z,-1.74
2018-02-21T02:35:12.096Z,-1.80
2018-02-21T02:37:39.924Z,-1.85
2018-02-21T02:40:07.639Z,-1.91
2018-02-21T02:42:35.461Z,-1.95
2018-02-21T02:45:03.229Z,-2.00
2018-02-21T02:47:30.948Z,-2.06
2018-02-21T02:49:58.753Z,-2.12
2018-02-21T02:52:26.629Z,-2.18
2018-02-21T02:54:54.372Z,-2.23
2018-02-21T02:57:22.148Z,-2.26
2018-02-21T03:02:16.933Z,-2.33
2018-02-21T03:04:44.728Z,-2.36
2018-02-21T03:07:12.444Z,-2.39
2018-02-21T03:09:40.268Z,-2.42
2018-02-21T03:12:08.001Z,-2.46
2018-02-21T03:14:35.740Z,-2.50
2018-02-21T03:17:03.565Z,-2.53
2018-02-21T03:19:31.308Z,-2.56
2018-02-21T03:21:59.083Z,-2.59
2018-02-21T03:24:26.847Z,-2.61
2018-02-21T03:26:54.588Z,-2.62
2018-02-21T03:29:22.308Z,-2.63
2018-02-21T03:31:50.152Z,-2.64
2018-02-21T03:34:17.908Z,-2.64
2018-02-21T03:36:45.644Z,-2.66
2018-02-21T03:39:13.439Z,-2.67
2018-02-21T03:41:41.212Z,-2.68
2018-02-21T03:44:08.934Z,-2.69
2018-02-21T03:46:36.741Z,-2.68
2018-02-21T03:49:04.511Z,-2.68
2018-02-21T03:51:32.268Z,-2.67
2018-02-21T03:53:59.992Z,-2.67
2018-02-21T03:56:27.738Z,-2.66
2018-02-21T03:58:55.470Z,-2.64
2018-02-21T04:01:23.332Z,-2.62
2018-02-21T04:03:51.096Z,-2.57
2018-02-21T04:06:18.866Z,-2.52
2018-02-21T04:08:46.625Z,-2.46
2018-02-21T04:11:14.392Z,-2.41
2018-02-21T04:13:42.161Z,-2.36
2018-02-21T04:16:09.881Z,-2.32
2018-02-21T04:18:37.683Z,-2.27
2018-02-21T04:21:05.400Z,-2.23
2018-02-21T04:23:33.212Z,-2.21
2018-02-21T04:26:00.982Z,-2.18
2018-02-21T04:28:28.729Z,-2.16
2018-02-21T04:30:56.444Z,-2.13
2018-02-21T04:33:24.199Z,-2.13
2018-02-21T04:35:51.944Z,-2.13
2018-02-21T04:38:19.663Z,-2.13
2018-02-21T04:40:47.408Z,-2.12
2018-02-21T04:43:15.231Z,-2.11
2018-02-21T04:45:42.973Z,-2.12
2018-02-21T04:48:10.733Z,-2.11
2018-02-21T04:50:38.528Z,-2.12
2018-02-21T04:53:06.248Z,-2.12
2018-02-21T04:55:39.604Z,-2.12
2018-02-21T04:58:12.954Z,-2.12
2018-02-21T05:00:40.763Z,-2.13
2018-02-21T05:03:08.524Z,-2.13
2018-02-21T05:05:36.283Z,-2.16
2018-02-21T05:08:04.004Z,-2.18
2018-02-21T05:10:31.745Z,-2.21
2018-02-21T05:12:59.465Z,-2.24
2018-02-21T05:15:27.345Z,-2.25
2018-02-21T05:17:55.068Z,-2.31
2018-02-21T05:20:22.877Z,-2.35
2018-02-21T05:22:50.639Z,-2.38
2018-02-21T05:25:18.356Z,-2.40
2018-02-21T05:27:46.139Z,-2.41
2018-02-21T05:30:13.904Z,-2.43
2018-02-21T05:32:41.669Z,-2.44
2018-02-21T05:35:09.400Z,-2.44
2018-02-21T05:37:37.140Z,-2.45
2018-02-21T05:40:04.892Z,-2.47
2018-02-21T05:42:32.666Z,-2.47
2018-02-21T05:45:00.433Z,-2.49
2018-02-21T05:47:28.190Z,-2.50
2018-02-21T05:49:55.965Z,-2.52
2018-02-21T05:52:23.709Z,-2.52
2018-02-21T05:54:51.495Z,-2.53
2018-02-21T05:57:19.352Z,-2.54
2018-02-21T05:59:47.171Z,-2.54
2018-02-21T06:02:14.988Z,-2.53
2018-02-21T06:04:42.757Z,-2.52
2018-02-21T06:07:10.484Z,-2.50
2018-02-21T06:09:38.284Z,-2.50
2018-02-21T06:12:06.011Z,-2.50
2018-02-21T06:14:33.764Z,-2.51
2018-02-21T06:17:01.484Z,-2.51
2018-02-21T06:19:29.232Z,-2.51
2018-02-21T06:21:57.829Z,-2.51
2018-02-21T06:24:25.568Z,-2.48
2018-02-21T06:26:53.361Z,-2.46
2018-02-21T06:29:21.104Z,-2.44
2018-02-21T06:31:48.896Z,-2.40
2018-02-21T06:34:16.665Z,-2.37
2018-02-21T06:36:44.415Z,-2.36
2018-02-21T06:39:12.188Z,-2.34
2018-02-21T06:41:39.925Z,-2.35
2018-02-21T06:44:07.641Z,-2.35
2018-02-21T06:46:35.476Z,-2.35
2018-02-21T06:49:03.281Z,-2.36
2018-02-21T06:51:31.108Z,-2.34
2018-02-21T06:53:58.881Z,-2.33
2018-02-21T06:56:26.624Z,-2.30
2018-02-21T06:58:54.412Z,-2.26
2018-02-21T07:01:22.165Z,-2.23
2018-02-21T07:03:49.885Z,-2.19
2018-02-21T07:06:17.629Z,-2.14
2018-02-21T07:08:45.365Z,-2.10
2018-02-21T07:11:13.108Z,-2.07
2018-02-21T07:13:40.828Z,-2.03
2018-02-21T07:16:08.633Z,-1.98
2018-02-21T07:18:36.578Z,-1.95
2018-02-21T07:21:04.363Z,-1.88
2018-02-21T07:23:32.160Z,-1.82
2018-02-21T07:25:59.933Z,-1.75
2018-02-21T07:28:27.692Z,-1.68
2018-02-21T07:30:55.467Z,-1.64
2018-02-21T07:33:23.235Z,-1.56
2018-02-21T07:35:50.988Z,-1.48
2018-02-21T07:38:18.756Z,-1.43
2018-02-21T07:40:46.485Z,-1.33
2018-02-21T07:43:14.228Z,-1.24
2018-02-21T07:45:42.055Z,-1.16
2018-02-21T07:48:09.804Z,-1.06
2018-02-21T07:50:37.533Z,-0.98
2018-02-21T07:53:05.284Z,-0.91
2018-02-21T07:55:33.077Z,-0.84
2018-02-21T07:58:00.849Z,-0.77
2018-02-21T08:00:28.577Z,-0.69
2018-02-21T08:02:56.405Z,-0.61
2018-02-21T08:05:24.171Z,-0.55
2018-02-21T08:07:51.940Z,-0.47
2018-02-21T08:10:19.667Z,-0.41
2018-02-21T08:12:47.392Z,-0.33
2018-02-21T08:15:15.145Z,-0.27
2018-02-21T08:17:42.904Z,-0.20
2018-02-21T08:20:10.653Z,-0.15
2018-02-21T08:22:38.495Z,-0.08
2018-02-21T08:25:06.241Z,-0.01
2018-02-21T08:27:34.060Z,0.05
2018-02-21T08:30:01.829Z,0.12
2018-02-21T08:32:29.555Z,0.20
2018-02-21T08:34:57.320Z,0.28
2018-02-21T08:37:25.036Z,0.36
2018-02-21T08:39:52.851Z,0.42
2018-02-21T08:42:20.648Z,0.50
2018-02-21T08:44:48.412Z,0.58
2018-02-21T08:47:16.180Z,0.68
2018-02-21T08:49:43.949Z,0.79
2018-02-21T08:52:11.606Z,0.88
2018-02-21T08:54:39.372Z,0.96
2018-02-21T08:57:07.088Z,1.05
2018-02-21T08:59:34.729Z,1.13
2018-02-21T09:02:02.394Z,1.21
2018-02-21T09:04:30.132Z,1.31
2018-02-21T09:06:57.860Z,1.42
2018-02-21T09:09:25.552Z,1.51
2018-02-21T09:11:53.316Z,1.59
2018-02-21T09:14:20.991Z,1.67
2018-02-21T09:16:48.753Z,1.73
2018-02-21T09:19:16.384Z,1.76
2018-02-21T09:21:44.045Z,1.83
2018-02-21T09:24:11.736Z,1.89
2018-02-21T09:26:39.500Z,2.00
2018-02-21T09:29:07.287Z,2.10
2018-02-21T09:31:35.000Z,2.22
2018-02-21T09:34:02.636Z,2.37
2018-02-21T09:36:30.280Z,2.51
2018-02-21T09:38:58.029Z,2.66
2018-02-21T09:41:25.784Z,2.81
2018-02-21T09:43:53.597Z,2.93
2018-02-21T09:46:21.320Z,3.05
2018-02-21T09:48:49.049Z,3.17
2018-02-21T09:51:16.746Z,3.29
2018-02-21T09:53:44.408Z,3.39
2018-02-21T09:56:12.057Z,3.47
2018-02-21T09:58:39.724Z,3.56
2018-02-21T10:01:07.366Z,3.66
2018-02-21T10:03:35.025Z,3.77
2018-02-21T10:06:02.720Z,3.89
2018-02-21T10:08:30.484Z,4.02
2018-02-21T10:10:58.219Z,4.14
2018-02-21T10:13:25.912Z,4.28
2018-02-21T10:15:53.579Z,4.42
2018-02-21T10:18:21.278Z,4.49
2018-02-21T10:20:49.076Z,4.56
2018-02-21T10:23:16.770Z,4.63
2018-02-21T10:25:44.436Z,4.70
2018-02-21T10:28:12.097Z,4.75
2018-02-21T10:30:39.756Z,4.79
2018-02-21T10:33:07.423Z,4.82
2018-02-21T10:35:35.088Z,4.81
2018-02-21T10:38:02.724Z,4.81
2018-02-21T10:40:30.482Z,4.80
2018-02-21T10:42:58.111Z,4.79
2018-02-21T10:45:25.835Z,4.78
2018-02-21T10:47:53.484Z,4.78
2018-02-21T10:50:21.164Z,4.79
2018-02-21T10:52:48.835Z,4.78
2018-02-21T10:55:16.593Z,4.77
2018-02-21T10:57:44.256Z,4.75
2018-02-21T11:00:11.916Z,4.74
2018-02-21T11:02:39.580Z,4.74
2018-02-21T11:05:07.212Z,4.73
2018-02-21T11:07:36.449Z,4.72
2018-02-21T11:10:04.108Z,4.71
2018-02-21T11:12:31.868Z,4.71
2018-02-21T11:14:59.538Z,4.71
2018-02-21T11:17:27.229Z,4.70
2018-02-21T11:19:54.961Z,4.70
2018-02-21T11:22:22.724Z,4.71
2018-02-21T11:24:50.414Z,4.73
2018-02-21T11:27:18.084Z,4.76
2018-02-21T11:29:45.816Z,4.79
2018-02-21T11:32:13.477Z,4.83
2018-02-21T11:34:41.214Z,4.88
2018-02-21T11:37:08.909Z,4.97
2018-02-21T11:39:36.557Z,5.06
2018-02-21T11:42:04.233Z,5.13
2018-02-21T11:44:32.004Z,5.23
2018-02-21T11:46:59.645Z,5.31
2018-02-21T11:49:27.308Z,5.35
2018-02-21T11:51:54.955Z,5.38
2018-02-21T11:54:22.614Z,5.42
2018-02-21T11:56:50.256Z,5.45
2018-02-21T11:59:17.976Z,5.48
2018-02-21T12:01:45.616Z,5.50
2018-02-21T12:04:13.278Z,5.54
2018-02-21T12:06:40.964Z,5.57
2018-02-21T12:09:08.633Z,5.60
2018-02-21T12:11:36.268Z,5.60
2018-02-21T12:14:03.933Z,5.60
2018-02-21T12:16:31.576Z,5.58
2018-02-21T12:18:59.280Z,5.56
2018-02-21T12:21:26.939Z,5.56
2018-02-21T12:23:54.708Z,5.56
2018-02-21T12:26:22.369Z,5.57
2018-02-21T12:28:50.136Z,5.57
2018-02-21T12:31:17.768Z,5.56
2018-02-21T12:33:45.454Z,5.57
2018-02-21T12:36:13.124Z,5.58
2018-02-21T12:38:40.765Z,5.62
2018-02-21T12:41:14.003Z,5.66
2018-02-21T12:43:41.648Z,5.66
2018-02-21T12:46:09.307Z,5.66
2018-02-21T12:48:36.968Z,5.62
2018-02-21T12:51:04.806Z,5.59
2018-02-21T12:53:32.500Z,5.57
2018-02-21T12:56:00.264Z,5.54
2018-02-21T12:58:27.929Z,5.49
2018-02-21T13:00:55.700Z,5.45
2018-02-21T13:03:23.357Z,5.42
2018-02-21T13:05:51.087Z,5.41
2018-02-21T13:08:18.970Z,5.41
2018-02-21T13:10:46.641Z,5.41
2018-02-21T13:13:14.284Z,5.40
2018-02-21T13:15:42.144Z,5.41
2018-02-21T13:18:09.793Z,5.44
2018-02-21T13:20:37.433Z,5.46
2018-02-21T13:23:05.102Z,5.44
2018-02-21T13:25:32.740Z,5.43
2018-02-21T13:28:00.498Z,5.40
2018-02-21T13:30:28.165Z,5.37
2018-02-21T13:32:55.828Z,5.34
2018-02-21T13:35:23.468Z,5.31
2018-02-21T13:37:51.134Z,5.27
2018-02-21T13:40:18.773Z,5.29
2018-02-21T13:42:46.436Z,5.33
2018-02-21T13:45:14.104Z,5.37
2018-02-21T13:47:41.800Z,5.44
2018-02-21T13:50:09.459Z,5.51
2018-02-21T13:52:37.237Z,5.62
2018-02-21T13:55:04.881Z,5.69
2018-02-21T13:57:32.540Z,5.75
2018-02-21T14:00:00.223Z,5.76
2018-02-21T14:02:27.880Z,5.78
2018-02-21T14:04:55.614Z,5.75
2018-02-21T14:07:23.299Z,5.73
2018-02-21T14:09:50.952Z,5.72
2018-02-21T14:12:18.642Z,5.70
2018-02-21T14:14:46.304Z,5.67
2018-02-21T14:17:13.941Z,5.64
2018-02-21T14:19:41.624Z,5.59
2018-02-21T14:22:09.256Z,5.52
2018-02-21T14:24:36.928Z,5.45
2018-02-21T14:27:04.604Z,5.37
2018-02-21T14:29:32.279Z,5.25
2018-02-21T14:31:59.945Z,5.13
2018-02-21T14:34:27.575Z,5.02
2018-02-21T14:36:55.232Z,4.90
2018-02-21T14:39:22.877Z,4.82
2018-02-21T14:41:50.537Z,4.73
2018-02-21T14:44:18.215Z,4.66
2018-02-21T14:46:45.885Z,4.61
2018-02-21T14:49:13.576Z,4.57
2018-02-21T14:51:41.228Z,4.54
2018-02-21T14:54:08.859Z,4.50
2018-02-21T14:56:36.534Z,4.46
2018-02-21T14:59:04.229Z,4.43
2018-02-21T15:01:31.889Z,4.37
2018-02-21T15:03:59.524Z,4.35
2018-02-21T15:06:27.221Z,4.31
2018-02-21T15:08:54.861Z,4.28
2018-02-21T15:11:22.549Z,4.24
2018-02-21T15:13:50.213Z,4.21
2018-02-21T15:16:23.574Z,4.18
2018-02-21T15:18:51.234Z,4.14
2018-02-21T15:21:18.877Z,4.13
2018-02-21T15:23:46.541Z,4.11
2018-02-21T15:26:14.261Z,4.08
2018-02-21T15:28:41.920Z,4.05
2018-02-21T15:31:09.592Z,4.02
2018-02-21T15:33:37.252Z,3.97
2018-02-21T15:36:04.917Z,3.94
2018-02-21T15:38:32.696Z,3.93
2018-02-21T15:41:00.333Z,3.90
2018-02-21T15:43:27.996Z,3.84
2018-02-21T15:45:55.636Z,3.80
2018-02-21T15:48:23.286Z,3.74
2018-02-21T15:50:50.948Z,3.71
2018-02-21T15:53:18.649Z,3.68
2018-02-21T15:55:46.313Z,3.64
2018-02-21T15:58:13.981Z,3.59
2018-02-21T16:00:41.740Z,3.55
2018-02-21T16:03:09.384Z,3.50
2018-02-21T16:05:37.045Z,3.46
2018-02-21T16:08:04.728Z,3.41
2018-02-21T16:10:32.392Z,3.38
2018-02-21T16:13:00.064Z,3.33
2018-02-21T16:15:27.819Z,3.30
2018-02-21T16:17:55.488Z,3.27
2018-02-21T16:20:23.249Z,3.24
2018-02-21T16:22:50.916Z,3.21
2018-02-21T16:25:18.553Z,3.19
2018-02-21T16:27:46.235Z,3.17
2018-02-21T16:30:13.970Z,3.14
2018-02-21T16:32:41.632Z,3.11
2018-02-21T16:35:09.335Z,3.09
2018-02-21T16:37:37.101Z,3.06
2018-02-21T16:40:04.756Z,3.03
2018-02-21T16:42:32.524Z,2.99
2018-02-21T16:45:00.165Z,2.94
2018-02-21T16:47:27.849Z,2.91
2018-02-21T16:49:55.517Z,2.88
2018-02-21T16:52:23.276Z,2.83
2018-02-21T16:54:50.950Z,2.77
2018-02-21T16:57:18.704Z,2.73
2018-02-21T16:59:46.340Z,2.67
2018-02-21T17:02:14.030Z,2.64
2018-02-21T17:04:41.672Z,2.60
2018-02-21T17:07:09.323Z,2.57
2018-02-21T17:09:37.016Z,2.54
2018-02-21T17:12:04.680Z,2.52
2018-02-21T17:14:32.348Z,2.48
2018-02-21T17:17:00.013Z,2.47
2018-02-21T17:19:27.772Z,2.46
2018-02-21T17:21:56.005Z,2.45
2018-02-21T17:24:23.717Z,2.41
2018-02-21T17:26:51.372Z,2.39
2018-02-21T17:29:19.139Z,2.35
2018-02-21T17:31:46.780Z,2.32
2018-02-21T17:34:14.436Z,2.27
2018-02-21T17:36:42.128Z,2.23
2018-02-21T17:39:09.789Z,2.20
2018-02-21T17:41:37.428Z,2.16
2018-02-21T17:44:05.118Z,2.13
2018-02-21T17:46:32.884Z,2.10
2018-02-21T17:49:00.648Z,2.07
2018-02-21T17:51:28.289Z,2.05
2018-02-21T17:53:56.081Z,2.01
2018-02-21T17:56:23.740Z,1.99
2018-02-21T17:58:51.384Z,1.95
2018-02-21T18:01:19.169Z,1.91
2018-02-21T18:03:46.839Z,1.89
2018-02-21T18:06:14.496Z,1.85
2018-02-21T18:08:42.140Z,1.83
2018-02-21T18:11:09.824Z,1.79
2018-02-21T18:13:37.485Z,1.75
2018-02-21T18:16:05.145Z,1.72
2018-02-21T18:18:32.785Z,1.70
2018-02-21T18:21:00.476Z,1.66
2018-02-21T18:23:28.121Z,1.62
2018-02-21T18:25:55.782Z,1.58
2018-02-21T18:28:23.529Z,1.53
2018-02-21T18:30:51.323Z,1.47
2018-02-21T18:33:19.024Z,1.43
2018-02-21T18:35:46.761Z,1.39
2018-02-21T18:38:14.520Z,1.33
2018-02-21T18:40:42.181Z,1.29
2018-02-21T18:43:09.828Z,1.24
2018-02-21T18:45:37.681Z,1.19
2018-02-21T18:48:05.349Z,1.15
2018-02-21T18:50:33.069Z,1.11
2018-02-21T18:53:00.913Z,1.06
2018-02-21T18:55:28.639Z,1.01
2018-02-21T18:57:56.394Z,0.95
2018-02-21T19:00:24.100Z,0.93
2018-02-21T19:02:51.841Z,0.90
2018-02-21T19:05:19.635Z,0.86
2018-02-21T19:07:47.431Z,0.83
2018-02-21T19:10:15.268Z,0.79
2018-02-21T19:12:43.105Z,0.75
2018-02-21T19:15:10.865Z,0.72
2018-02-21T19:17:39.038Z,0.68
2018-02-21T19:20:06.840Z,0.64
2018-02-21T19:22:34.565Z,0.61
2018-02-21T19:25:02.308Z,0.57
2018-02-21T19:27:30.039Z,0.52
2018-02-21T19:29:57.776Z,0.48
2018-02-21T19:32:25.504Z,0.42
2018-02-21T19:34:53.248Z,0.39
2018-02-21T19:37:20.981Z,0.37
2018-02-21T19:39:48.824Z,0.35
2018-02-21T19:42:16.543Z,0.32
2018-02-21T19:44:44.387Z,0.30
2018-02-21T19:47:12.104Z,0.28
2018-02-21T19:49:39.886Z,0.24
2018-02-21T19:52:07.608Z,0.21
2018-02-21T19:54:35.452Z,0.19
2018-02-21T19:57:03.172Z,0.17
2018-02-21T19:59:30.925Z,0.14
2018-02-21T20:01:58.743Z,0.12
2018-02-21T20:04:26.508Z,0.10
2018-02-21T20:06:54.250Z,0.07
2018-02-21T20:09:21.972Z,0.06
2018-02-21T20:11:49.804Z,0.04
2018-02-21T20:14:17.568Z,0.03
2018-02-21T20:16:45.344Z,0.02
2018-02-21T20:19:13.070Z,0.01
2018-02-21T20:21:40.844Z,-0.02
2018-02-21T20:24:08.637Z,-0.03
2018-02-21T20:26:36.504Z,-0.05
2018-02-21T20:29:04.269Z,-0.06
2018-02-21T20:31:32.015Z,-0.08
2018-02-21T20:33:59.792Z,-0.11
2018-02-21T20:36:27.545Z,-0.14
2018-02-21T20:38:55.395Z,-0.18
2018-02-21T20:41:23.197Z,-0.22
2018-02-21T20:43:50.964Z,-0.25
2018-02-21T20:46:18.728Z,-0.27
2018-02-21T20:48:46.468Z,-0.26
2018-02-21T20:51:14.195Z,-0.25
2018-02-21T20:53:41.977Z,-0.24
2018-02-21T20:56:09.700Z,-0.20
2018-02-21T20:58:37.450Z,-0.16
2018-02-21T21:01:05.179Z,-0.13
2018-02-21T21:03:32.980Z,-0.09
2018-02-21T21:06:00.704Z,-0.04
2018-02-21T21:08:28.478Z,0.00
2018-02-21T21:10:56.277Z,0.03
2018-02-21T21:13:24.036Z,0.05
2018-02-21T21:15:51.752Z,0.08
2018-02-21T21:18:19.497Z,0.10
2018-02-21T21:20:47.331Z,0.12
2018-02-21T21:23:15.096Z,0.13
2018-02-21T21:25:42.828Z,0.15
2018-02-21T21:28:10.587Z,0.17
2018-02-21T21:30:38.320Z,0.19
2018-02-21T21:33:06.037Z,0.22
2018-02-21T21:35:33.790Z,0.26
2018-02-21T21:38:01.593Z,0.29
2018-02-21T21:40:29.336Z,0.33
2018-02-21T21:42:57.048Z,0.39
2018-02-21T21:45:24.879Z,0.43
2018-02-21T21:47:52.592Z,0.48
2018-02-21T21:50:20.313Z,0.52
2018-02-21T21:52:48.036Z,0.53
2018-02-21T21:55:15.786Z,0.55
2018-02-21T21:57:43.508Z,0.57
2018-02-21T22:00:11.274Z,0.55
2018-02-21T22:02:38.998Z,0.54
2018-02-21T22:05:06.725Z,0.53
2018-02-21T22:07:34.573Z,0.51
2018-02-21T22:10:02.336Z,0.49
2018-02-21T22:12:30.101Z,0.46
2018-02-21T22:14:57.868Z,0.41
2018-02-21T22:17:25.737Z,0.38
2018-02-21T22:19:53.658Z,0.32
2018-02-21T22:22:21.398Z,0.28
2018-02-21T22:24:49.121Z,0.23
2018-02-21T22:27:16.856Z,0.19
2018-02-21T22:29:44.572Z,0.15
2018-02-21T22:32:12.320Z,0.13
2018-02-21T22:34:40.093Z,0.09
2018-02-21T22:37:07.952Z,0.06
2018-02-21T22:39:35.673Z,0.06
2018-02-21T22:42:03.392Z,0.07
2018-02-21T22:44:31.137Z,0.08
2018-02-21T22:46:58.861Z,0.09
2018-02-21T22:49:26.671Z,0.08
2018-02-21T22:51:54.449Z,0.07
2018-02-21T22:54:22.192Z,0.07
2018-02-21T22:56:49.911Z,0.10
2018-02-21T22:59:17.660Z,0.13
2018-02-21T23:01:45.380Z,0.15
2018-02-21T23:04:13.164Z,0.16
2018-02-21T23:06:40.936Z,0.15
2018-02-21T23:09:08.706Z,0.16
2018-02-21T23:11:36.469Z,0.17
2018-02-21T23:14:04.233Z,0.18
2018-02-21T23:16:31.992Z,0.18
2018-02-21T23:18:59.707Z,0.20
2018-02-21T23:21:27.444Z,0.20
2018-02-21T23:23:55.164Z,0.20
2018-02-21T23:26:22.957Z,0.19
2018-02-21T23:28:50.711Z,0.18
2018-02-21T23:31:18.481Z,0.17
2018-02-21T23:33:46.201Z,0.16
2018-02-21T23:36:14.012Z,0.16
2018-02-21T23:38:41.727Z,0.16
2018-02-21T23:41:09.557Z,0.16
2018-02-21T23:43:37.281Z,0.17
2018-02-21T23:46:04.995Z,0.18
2018-02-21T23:48:32.889Z,0.18
2018-02-21T23:51:00.674Z,0.18
2018-02-21T23:53:28.473Z,0.20
2018-02-21T23:55:56.187Z,0.23
2018-02-21T23:58:23.935Z,0.24
